This is the latest recevied weather packets stored in our database for station/object N8HON. If no packets are shown the sender has not sent any weather packets the latest 10 day(s).
| Time | Temp. | Humidity | Pressure | Rain* | Wind** | Luminosity | Snow |
|---|---|---|---|---|---|---|---|
| 1778177520 | 17.22° C | 56% | 1008.2 hPa | 0 mm | - | 760 W/m² | - |
| 1778177216 | 16.67° C | 51% | 1008.3 hPa | 0 mm | - | 766 W/m² | - |
| 1778176914 | 17.22° C | 55% | 1008.3 hPa | 0 mm | - | 658 W/m² | - |
| 1778176609 | 17.22° C | 52% | 1008.3 hPa | 0 mm | - | 574 W/m² | - |
| 1778176307 | 16.67° C | 55% | 1008.4 hPa | 0 mm | - | 709 W/m² | - |
| 1778176004 | 16.67° C | 52% | 1008.5 hPa | 0 mm | - | 823 W/m² | - |
| 1778175702 | 17.22° C | 53% | 1008.8 hPa | 0 mm | - | 317 W/m² | - |
| 1778175399 | 17.78° C | 51% | 1008.8 hPa | 0 mm | - | 820 W/m² | - |
| 1778175096 | 17.22° C | 53% | 1008.9 hPa | 0 mm | - | 809 W/m² | - |
| 1778174792 | 17.22° C | 55% | 1008.9 hPa | 0 mm | - | 707 W/m² | - |
| 1778174490 | 17.22° C | 55% | 1009 hPa | 0 mm | - | 282 W/m² | - |
| 1778174184 | 17.22° C | 54% | 1009.2 hPa | 0 mm | - | 546 W/m² | - |
| 1778173882 | 17.22° C | 53% | 1009 hPa | 0 mm | - | 806 W/m² | - |
| 1778173579 | 17.22° C | 53% | 1009 hPa | 0 mm | - | 873 W/m² | - |
| 1778173276 | 16.67° C | 57% | 1009.1 hPa | 0 mm | - | 866 W/m² | - |
| 1778172971 | 16.11° C | 56% | 1009.3 hPa | 0 mm | - | 256 W/m² | - |
| 1778172668 | 16.67° C | 56% | 1009.4 hPa | 0 mm | - | 679 W/m² | - |
| 1778172364 | 16.11° C | 57% | 1009.5 hPa | 0 mm | - | 292 W/m² | - |
| 1778172061 | 15° C | 60% | 1009.4 hPa | 0 mm | - | 681 W/m² | - |
| 1778171758 | 15° C | 58% | 1009.7 hPa | 0 mm | - | 253 W/m² | - |
| 1778171456 | 15° C | 59% | 1009.5 hPa | 0 mm | - | 257 W/m² | - |
| 1778171156 | 15.56° C | 58% | 1009.5 hPa | 0 mm | - | 258 W/m² | - |
| 1778170853 | 15.56° C | 59% | 1009.7 hPa | 0 mm | - | 477 W/m² | - |
| 1778170549 | 15° C | 59% | 1009.5 hPa | 0 mm | - | 661 W/m² | - |
| 1778170246 | 14.44° C | 61% | 1009.7 hPa | 0 mm | - | 252 W/m² | - |
* Rain latest hour (hover to see other rain measurements)
** Current wind speed in m/s (hover to see current wind gust speed)